createdAt,value
2022-12-09T00:00:43.373Z,100370.25
2022-12-09T00:01:30.164Z,100371.03
2022-12-09T00:02:16.924Z,100369.28
2022-12-09T00:03:03.825Z,100364.16
2022-12-09T00:03:51.362Z,100370.16
2022-12-09T00:04:38.439Z,100368.47
2022-12-09T00:05:25.176Z,100368.47
2022-12-09T00:06:17.923Z,100366.78
2022-12-09T00:07:04.521Z,100367.69
2022-12-09T00:07:51.055Z,100368.53
2022-12-09T00:08:37.944Z,100363.50
2022-12-09T00:09:27.011Z,100365.16
2022-12-09T00:10:14.272Z,100358.69
2022-12-09T00:11:00.932Z,100360.28
2022-12-09T00:11:47.502Z,100357.63
2022-12-09T00:12:34.291Z,100359.38
2022-12-09T00:13:23.909Z,100352.44
2022-12-09T00:14:14.043Z,100366.13
2022-12-09T00:15:00.815Z,100355.97
2022-12-09T00:15:50.627Z,100355.06
2022-12-09T00:16:38.110Z,100360.28
2022-12-09T00:17:25.010Z,100355.97
2022-12-09T00:18:12.210Z,100353.53
2022-12-09T00:18:59.108Z,100358.72
2022-12-09T00:19:49.371Z,100359.63
2022-12-09T00:20:36.274Z,100355.31
2022-12-09T00:21:26.665Z,100359.63
2022-12-09T00:22:13.889Z,100355.47
2022-12-09T00:23:00.761Z,100358.72
2022-12-09T00:23:49.013Z,100354.34
2022-12-09T00:24:35.689Z,100353.38
2022-12-09T00:25:22.492Z,100356.00
2022-12-09T00:26:09.388Z,100356.91
2022-12-09T00:26:57.081Z,100351.69
2022-12-09T00:27:43.749Z,100355.97
2022-12-09T00:28:30.262Z,100351.69
2022-12-09T00:29:17.057Z,100336.28
2022-12-09T00:30:04.843Z,100350.03
2022-12-09T00:30:52.291Z,100351.69
2022-12-09T00:31:40.161Z,100351.78
2022-12-09T00:32:27.163Z,100350.06
2022-12-09T00:33:14.048Z,100346.66
2022-12-09T00:34:04.125Z,100356.91
2022-12-09T00:34:50.839Z,100357.06
2022-12-09T00:35:37.754Z,100358.81
2022-12-09T00:36:28.497Z,100351.13
2022-12-09T00:37:17.827Z,100352.78
2022-12-09T00:38:05.407Z,100354.19
2022-12-09T00:38:53.023Z,100354.09
2022-12-09T00:39:40.555Z,100355.72
2022-12-09T00:40:27.215Z,100350.72
2022-12-09T00:41:15.568Z,100348.97
2022-12-09T00:42:02.208Z,100344.59
2022-12-09T00:42:48.807Z,100353.16
2022-12-09T00:43:35.773Z,100348.00
2022-12-09T00:44:25.105Z,100347.06
2022-12-09T00:45:11.767Z,100352.19
2022-12-09T00:45:58.423Z,100355.66
2022-12-09T00:46:45.357Z,100353.16
2022-12-09T00:47:32.227Z,100358.38
2022-12-09T00:48:21.920Z,100355.06
2022-12-09T00:49:08.616Z,100359.22
2022-12-09T00:49:55.352Z,100360.03
2022-12-09T00:50:42.329Z,100354.03
2022-12-09T00:51:29.031Z,100363.41
2022-12-09T00:52:15.672Z,100357.41
2022-12-09T00:53:04.850Z,100359.09
2022-12-09T00:53:55.010Z,100359.97
2022-12-09T00:54:41.728Z,100363.50
2022-12-09T00:55:28.861Z,100359.09
2022-12-09T00:56:15.945Z,100368.69
2022-12-09T00:57:02.875Z,100359.19
2022-12-09T00:57:49.667Z,100366.13
2022-12-09T00:58:36.799Z,100357.56
2022-12-09T00:59:23.612Z,100348.97
2022-12-09T01:00:10.992Z,100355.06
2022-12-09T01:00:57.972Z,100350.81
2022-12-09T01:01:44.709Z,100353.53
2022-12-09T01:02:31.628Z,100352.84
2022-12-09T01:03:18.780Z,100355.41
2022-12-09T01:04:08.232Z,100357.66
2022-12-09T01:04:55.796Z,100354.84
2022-12-09T01:05:43.422Z,100357.56
2022-12-09T01:06:31.520Z,100353.19
2022-12-09T01:07:19.402Z,100357.50
2022-12-09T01:08:06.385Z,100353.19
2022-12-09T01:08:53.704Z,100352.28
2022-12-09T01:09:40.786Z,100357.66
2022-12-09T01:10:27.527Z,100353.97
2022-12-09T01:11:27.866Z,100355.50
2022-12-09T01:12:14.625Z,100357.09
2022-12-09T01:13:06.183Z,100356.25
2022-12-09T01:13:53.238Z,100357.34
2022-12-09T01:14:40.722Z,100361.59
2022-12-09T01:15:27.386Z,100358.97
2022-12-09T01:16:19.879Z,100360.94
2022-12-09T01:17:08.181Z,100349.72
2022-12-09T01:17:55.318Z,100359.81
2022-12-09T01:18:42.026Z,100359.59
2022-12-09T01:19:29.231Z,100352.78
2022-12-09T01:20:19.034Z,100350.22
2022-12-09T01:21:06.005Z,100356.25
2022-12-09T01:21:55.514Z,100349.41
2022-12-09T01:22:42.518Z,100352.06
2022-12-09T01:23:29.048Z,100356.84
2022-12-09T01:24:15.863Z,100356.75
2022-12-09T01:25:03.576Z,100359.31
2022-12-09T01:25:50.515Z,100362.13
2022-12-09T01:26:38.589Z,100356.22
2022-12-09T01:27:25.124Z,100362.25
2022-12-09T01:28:11.971Z,100361.34
2022-12-09T01:28:58.803Z,100356.91
2022-12-09T01:29:48.548Z,100362.94
2022-12-09T01:30:38.632Z,100360.44
2022-12-09T01:31:28.003Z,100355.97
2022-12-09T01:32:15.456Z,100356.59
2022-12-09T01:33:02.349Z,100368.41
2022-12-09T01:33:49.303Z,100358.81
2022-12-09T01:34:35.963Z,100358.66
2022-12-09T01:35:22.895Z,100365.53
2022-12-09T01:36:14.597Z,100358.72
2022-12-09T01:37:01.873Z,100363.03
2022-12-09T01:37:50.147Z,100358.81
2022-12-09T01:38:37.132Z,100369.22
2022-12-09T01:39:25.753Z,100366.66
2022-12-09T01:40:16.915Z,100367.63
2022-12-09T01:41:04.090Z,100365.91
2022-12-09T01:41:51.403Z,100365.84
2022-12-09T01:42:38.113Z,100367.44
2022-12-09T01:43:25.003Z,100368.47
2022-12-09T01:44:18.032Z,100363.28
2022-12-09T01:45:30.726Z,100370.81
2022-12-09T01:46:17.693Z,100363.03
2022-12-09T01:47:04.775Z,100369.06
2022-12-09T01:48:14.693Z,100365.59
2022-12-09T01:49:07.477Z,100364.63
2022-12-09T01:49:54.456Z,100359.44
2022-12-09T01:50:46.883Z,100366.25
2022-12-09T01:51:34.511Z,100361.06
2022-12-09T01:52:23.741Z,100359.34
2022-12-09T01:53:13.423Z,100362.16
2022-12-09T01:54:01.507Z,100355.59
2022-12-09T01:54:53.735Z,100359.44
2022-12-09T01:55:45.137Z,100358.94
2022-12-09T01:56:37.445Z,100364.31
2022-12-09T01:57:26.939Z,100357.25
2022-12-09T01:58:18.918Z,100356.91
2022-12-09T01:59:12.911Z,100359.31
2022-12-09T02:00:00.257Z,100353.09
2022-12-09T02:00:48.260Z,100353.03
2022-12-09T02:01:36.767Z,100358.81
2022-12-09T02:02:28.778Z,100345.72
2022-12-09T02:03:16.653Z,100350.00
2022-12-09T02:04:04.901Z,100348.22
2022-12-09T02:04:51.876Z,100344.94
2022-12-09T02:05:39.651Z,100347.75
2022-12-09T02:06:26.313Z,100352.88
2022-12-09T02:07:13.385Z,100352.88
2022-12-09T02:08:02.840Z,100342.13
2022-12-09T02:08:51.477Z,100349.22
2022-12-09T02:09:43.049Z,100348.59
2022-12-09T02:10:30.525Z,100348.41
2022-12-09T02:11:38.703Z,100345.63
2022-12-09T02:12:43.260Z,100343.72
2022-12-09T02:13:47.813Z,100343.47
2022-12-09T02:15:01.528Z,100347.81
2022-12-09T02:15:55.872Z,100343.25
2022-12-09T02:17:23.870Z,100343.16
2022-12-09T02:18:46.144Z,100344.88
2022-12-09T02:19:51.885Z,100345.31
2022-12-09T02:20:52.079Z,100336.75
2022-12-09T02:21:54.571Z,100333.31
2022-12-09T02:22:47.736Z,100332.25
2022-12-09T02:23:53.604Z,100333.88
2022-12-09T02:24:55.510Z,100333.16
2022-12-09T02:25:49.600Z,100325.22
2022-12-09T02:26:40.908Z,100330.75
2022-12-09T02:27:36.504Z,100329.03
2022-12-09T02:28:47.108Z,100330.75
2022-12-09T02:29:58.062Z,100323.59
2022-12-09T02:31:03.681Z,100320.81
2022-12-09T02:32:22.948Z,100324.91
2022-12-09T02:33:36.209Z,100325.56
2022-12-09T02:34:31.793Z,100332.28
2022-12-09T02:35:35.352Z,100327.00
2022-12-09T02:36:29.839Z,100324.34
2022-12-09T02:37:27.184Z,100326.03
2022-12-09T02:38:28.858Z,100320.91
2022-12-09T02:39:16.347Z,100321.63
2022-12-09T02:40:13.376Z,100323.31
2022-12-09T02:41:26.338Z,100324.28
2022-12-09T02:42:18.690Z,100328.59
2022-12-09T02:43:12.204Z,100329.31
2022-12-09T02:44:12.564Z,100330.91
2022-12-09T02:45:04.342Z,100331.72
2022-12-09T02:45:56.046Z,100333.31
2022-12-09T02:46:45.317Z,100335.72
2022-12-09T02:47:41.723Z,100328.75
2022-12-09T02:48:38.039Z,100327.13
2022-12-09T02:49:28.256Z,100333.88
2022-12-09T02:50:23.984Z,100318.41
2022-12-09T02:51:18.213Z,100326.91
2022-12-09T02:52:07.035Z,100331.88
2022-12-09T02:53:00.164Z,100326.50
2022-12-09T02:53:54.885Z,100325.63
2022-12-09T02:54:43.879Z,100324.75
2022-12-09T02:55:33.149Z,100323.06
2022-12-09T02:56:22.330Z,100328.19
2022-12-09T02:57:17.893Z,100321.16
2022-12-09T02:58:05.336Z,100322.91
2022-12-09T02:58:54.654Z,100317.63
2022-12-09T02:59:44.644Z,100315.06
2022-12-09T03:00:32.553Z,100320.88
2022-12-09T03:01:29.429Z,100316.56
2022-12-09T03:02:33.379Z,100318.16
2022-12-09T03:03:20.463Z,100315.50
2022-12-09T03:04:14.230Z,100315.34
2022-12-09T03:05:38.804Z,100313.53
2022-12-09T03:06:36.176Z,100309.03
2022-12-09T03:07:55.254Z,100311.19
2022-12-09T03:08:56.964Z,100313.47
2022-12-09T03:09:52.451Z,100312.34
2022-12-09T03:11:03.056Z,100310.25
2022-12-09T03:11:52.552Z,100309.22
2022-12-09T03:12:44.637Z,100303.03
2022-12-09T03:13:53.657Z,100311.34
2022-12-09T03:14:50.823Z,100307.03
2022-12-09T03:15:44.387Z,100308.53
2022-12-09T03:16:41.744Z,100309.25
2022-12-09T03:17:36.253Z,100306.59
2022-12-09T03:18:28.217Z,100304.78
2022-12-09T03:19:25.318Z,100308.13
2022-12-09T03:20:23.868Z,100309.78
2022-12-09T03:21:19.419Z,100306.25
2022-12-09T03:22:12.347Z,100311.22
2022-12-09T03:23:05.805Z,100306.72
2022-12-09T03:23:56.302Z,100313.50
2022-12-09T03:25:12.333Z,100307.53
2022-12-09T03:26:02.326Z,100304.00
2022-12-09T03:26:53.142Z,100304.78
2022-12-09T03:27:50.507Z,100304.69
2022-12-09T03:28:45.554Z,100296.78
2022-12-09T03:29:38.294Z,100303.56
2022-12-09T03:30:25.192Z,100295.09
2022-12-09T03:31:17.747Z,100301.78
2022-12-09T03:32:05.238Z,100303.38
2022-12-09T03:32:55.591Z,100293.16
2022-12-09T03:33:47.925Z,100294.75
2022-12-09T03:34:42.348Z,100300.75
2022-12-09T03:35:44.029Z,100297.28
2022-12-09T03:36:39.267Z,100297.28
2022-12-09T03:37:27.618Z,100292.13
2022-12-09T03:38:19.499Z,100292.91
2022-12-09T03:39:12.877Z,100294.56
2022-12-09T03:40:01.441Z,100289.44
2022-12-09T03:41:02.076Z,100292.81
2022-12-09T03:41:57.712Z,100294.56
2022-12-09T03:42:54.530Z,100297.06
2022-12-09T03:43:48.754Z,100299.41
2022-12-09T03:44:47.608Z,100299.34
2022-12-09T03:45:35.330Z,100305.31
2022-12-09T03:46:23.907Z,100295.81
2022-12-09T03:47:10.872Z,100291.50
2022-12-09T03:47:58.197Z,100302.59
2022-12-09T03:48:45.977Z,100295.72
2022-12-09T03:49:34.411Z,100293.16
2022-12-09T03:50:29.393Z,100293.88
2022-12-09T03:51:28.153Z,100292.97
2022-12-09T03:52:37.374Z,100292.13
2022-12-09T03:53:36.766Z,100291.22
2022-12-09T03:54:44.676Z,100283.56
2022-12-09T03:55:53.296Z,100290.34
2022-12-09T03:56:46.157Z,100283.47
2022-12-09T03:57:40.905Z,100286.84
2022-12-09T03:58:31.561Z,100285.88
2022-12-09T03:59:19.767Z,100284.78
2022-12-09T04:00:08.095Z,100286.31
2022-12-09T04:01:07.111Z,100295.75
2022-12-09T04:01:54.971Z,100291.44
2022-12-09T04:02:42.030Z,100288.66
2022-12-09T04:03:28.993Z,100285.25
2022-12-09T04:04:16.940Z,100290.25
2022-12-09T04:05:04.238Z,100287.81
2022-12-09T04:05:51.262Z,100287.91
2022-12-09T04:06:40.564Z,100287.09
2022-12-09T04:07:27.385Z,100289.72
2022-12-09T04:08:16.778Z,100290.63
2022-12-09T04:09:05.484Z,100284.63
2022-12-09T04:09:52.939Z,100278.88
2022-12-09T04:10:41.010Z,100285.75
2022-12-09T04:11:28.346Z,100285.13
2022-12-09T04:12:15.742Z,100275.88
2022-12-09T04:13:03.867Z,100281.25
2022-12-09T04:13:51.118Z,100277.19
2022-12-09T04:14:37.976Z,100270.31
2022-12-09T04:15:24.708Z,100282.22
2022-12-09T04:16:12.453Z,100273.66
2022-12-09T04:16:59.509Z,100279.56
2022-12-09T04:17:46.324Z,100272.63
2022-12-09T04:18:33.114Z,100276.94
2022-12-09T04:19:19.939Z,100278.72
2022-12-09T04:20:08.020Z,100272.53
2022-12-09T04:20:55.583Z,100276.84
2022-12-09T04:21:42.819Z,100270.94
2022-12-09T04:22:31.872Z,100270.94
2022-12-09T04:23:18.824Z,100270.75
2022-12-09T04:24:05.961Z,100272.34
2022-12-09T04:24:53.656Z,100271.47
2022-12-09T04:25:43.391Z,100262.06
2022-12-09T04:26:30.463Z,100265.47
2022-12-09T04:27:20.723Z,100266.38
2022-12-09T04:28:08.121Z,100265.47
2022-12-09T04:28:55.527Z,100266.38
2022-12-09T04:29:44.229Z,100268.13
2022-12-09T04:30:30.980Z,100260.53
2022-12-09T04:31:20.597Z,100262.91
2022-12-09T04:32:10.290Z,100263.03
2022-12-09T04:33:00.074Z,100262.91
2022-12-09T04:33:47.933Z,100265.31
2022-12-09T04:34:34.823Z,100260.97
2022-12-09T04:35:23.879Z,100260.97
2022-12-09T04:36:16.634Z,100259.16
2022-12-09T04:37:10.006Z,100256.66
2022-12-09T04:37:58.209Z,100260.00
2022-12-09T04:38:46.587Z,100267.69
2022-12-09T04:39:34.346Z,100264.59
2022-12-09T04:40:23.997Z,100264.94
2022-12-09T04:41:14.674Z,100261.75
2022-12-09T04:42:04.612Z,100263.59
2022-12-09T04:42:51.999Z,100268.00
2022-12-09T04:43:41.044Z,100267.22
2022-12-09T04:44:27.896Z,100259.53
2022-12-09T04:45:14.844Z,100257.00
2022-12-09T04:46:04.317Z,100265.56
2022-12-09T04:46:51.239Z,100259.38
2022-12-09T04:47:38.623Z,100261.13
2022-12-09T04:48:25.858Z,100257.63
2022-12-09T04:49:13.076Z,100262.84
2022-12-09T04:50:00.580Z,100259.47
2022-12-09T04:50:47.465Z,100259.38
2022-12-09T04:51:39.375Z,100255.06
2022-12-09T04:52:26.552Z,100258.13
2022-12-09T04:53:13.379Z,100258.25
2022-12-09T04:54:00.537Z,100254.88
2022-12-09T04:54:50.326Z,100257.50
2022-12-09T04:55:37.139Z,100257.63
2022-12-09T04:56:23.807Z,100259.38
2022-12-09T04:57:12.396Z,100256.81
2022-12-09T04:57:59.528Z,100255.91
2022-12-09T04:58:48.707Z,100260.00
2022-12-09T04:59:35.545Z,100256.66
2022-12-09T05:00:22.237Z,100251.44
2022-12-09T05:01:12.084Z,100254.00
2022-12-09T05:01:59.253Z,100257.44
2022-12-09T05:02:46.831Z,100251.38
2022-12-09T05:03:33.938Z,100250.47
2022-12-09T05:04:21.472Z,100256.53
2022-12-09T05:05:09.172Z,100256.38
2022-12-09T05:05:56.481Z,100259.84
2022-12-09T05:06:44.205Z,100254.72
2022-12-09T05:07:32.110Z,100259.03
2022-12-09T05:08:19.486Z,100251.38
2022-12-09T05:09:12.357Z,100258.31
2022-12-09T05:10:02.501Z,100255.06
2022-12-09T05:10:50.727Z,100260.44
2022-12-09T05:11:37.630Z,100256.19
2022-12-09T05:12:27.046Z,100264.84
2022-12-09T05:13:16.180Z,100262.22
2022-12-09T05:14:03.701Z,100262.28
2022-12-09T05:14:53.587Z,100269.25
2022-12-09T05:15:40.336Z,100251.25
2022-12-09T05:16:29.606Z,100258.84
2022-12-09T05:17:16.782Z,100259.66
2022-12-09T05:18:04.835Z,100255.50
2022-12-09T05:18:52.483Z,100256.28
2022-12-09T05:19:40.520Z,100254.53
2022-12-09T05:20:29.884Z,100255.22
2022-12-09T05:21:20.809Z,100252.66
2022-12-09T05:22:10.117Z,100254.38
2022-12-09T05:22:56.767Z,100261.31
2022-12-09T05:23:46.565Z,100249.25
2022-12-09T05:24:33.873Z,100254.44
2022-12-09T05:25:20.948Z,100253.38
2022-12-09T05:26:11.911Z,100254.25
2022-12-09T05:26:59.291Z,100254.09
2022-12-09T05:27:46.643Z,100254.00
2022-12-09T05:28:34.547Z,100248.00
2022-12-09T05:29:23.497Z,100253.81
2022-12-09T05:30:11.001Z,100249.44
2022-12-09T05:31:07.768Z,100251.19
2022-12-09T05:31:54.719Z,100253.38
2022-12-09T05:32:42.712Z,100248.25
2022-12-09T05:33:30.362Z,100247.38
2022-12-09T05:34:18.269Z,100248.50
2022-12-09T05:35:05.790Z,100249.25
2022-12-09T05:35:53.598Z,100244.94
2022-12-09T05:36:43.262Z,100250.75
2022-12-09T05:37:30.334Z,100246.94
2022-12-09T05:38:17.487Z,100248.47
2022-12-09T05:39:07.361Z,100246.53
2022-12-09T05:39:54.141Z,100244.16
2022-12-09T05:40:41.492Z,100243.19
2022-12-09T05:41:28.578Z,100246.59
2022-12-09T05:42:15.705Z,100246.44
2022-12-09T05:43:03.422Z,100248.19
2022-12-09T05:43:51.213Z,100245.63
2022-12-09T05:44:40.071Z,100244.66
2022-12-09T05:45:26.867Z,100246.19
2022-12-09T05:46:14.980Z,100246.25
2022-12-09T05:47:01.651Z,100245.41
2022-12-09T05:47:48.495Z,100240.19
2022-12-09T05:48:36.598Z,100240.28
2022-12-09T05:49:23.783Z,100242.84
2022-12-09T05:50:11.602Z,100243.53
2022-12-09T05:51:00.046Z,100241.94
2022-12-09T05:51:47.172Z,100240.19
2022-12-09T05:52:38.489Z,100249.63
2022-12-09T05:53:25.891Z,100241.06
2022-12-09T05:54:12.803Z,100239.38
2022-12-09T05:54:59.676Z,100243.69
2022-12-09T05:55:46.487Z,100237.72
2022-12-09T05:56:33.496Z,100238.53
2022-12-09T05:57:21.282Z,100243.63
2022-12-09T05:58:08.058Z,100235.75
2022-12-09T05:58:56.472Z,100237.53
2022-12-09T05:59:43.682Z,100240.00
2022-12-09T06:00:31.407Z,100233.03
2022-12-09T06:01:19.312Z,100232.97
2022-12-09T06:02:09.921Z,100232.00
2022-12-09T06:02:57.624Z,100235.34
2022-12-09T06:03:48.221Z,100229.50
2022-12-09T06:04:35.257Z,100226.16
2022-12-09T06:05:22.843Z,100230.56
2022-12-09T06:06:15.776Z,100238.25
2022-12-09T06:07:02.844Z,100228.28
2022-12-09T06:07:49.795Z,100227.38
2022-12-09T06:08:38.016Z,100226.41
2022-12-09T06:09:24.966Z,100232.97
2022-12-09T06:10:12.097Z,100227.56
2022-12-09T06:10:58.998Z,100231.53
2022-12-09T06:11:45.561Z,100235.63
2022-12-09T06:12:32.740Z,100231.88
2022-12-09T06:13:19.444Z,100236.03
2022-12-09T06:14:11.332Z,100231.53
2022-12-09T06:14:58.323Z,100236.66
2022-12-09T06:15:45.359Z,100228.28
2022-12-09T06:16:32.172Z,100237.78
2022-12-09T06:17:19.375Z,100236.03
2022-12-09T06:18:06.423Z,100230.06
2022-12-09T06:18:53.656Z,100234.19
2022-12-09T06:19:40.389Z,100232.25
2022-12-09T06:20:27.972Z,100239.03
2022-12-09T06:21:16.392Z,100234.53
2022-12-09T06:22:03.460Z,100234.53
2022-12-09T06:22:50.287Z,100233.66
2022-12-09T06:23:39.073Z,100233.75
2022-12-09T06:24:25.815Z,100226.19
2022-12-09T06:25:12.934Z,100227.22
2022-12-09T06:26:00.231Z,100232.50
2022-12-09T06:26:47.097Z,100230.06
2022-12-09T06:27:34.447Z,100231.81
2022-12-09T06:28:21.510Z,100230.91
2022-12-09T06:29:09.432Z,100231.81
2022-12-09T06:29:56.523Z,100235.25
2022-12-09T06:30:43.448Z,100232.69
2022-12-09T06:31:30.447Z,100237.78
2022-12-09T06:32:18.010Z,100229.44
2022-12-09T06:33:23.086Z,100227.56
2022-12-09T06:34:15.353Z,100230.22
2022-12-09T06:35:03.017Z,100230.34
2022-12-09T06:35:49.910Z,100229.44
2022-12-09T06:36:37.378Z,100231.19
2022-12-09T06:37:24.169Z,100235.63
2022-12-09T06:38:11.371Z,100231.38
2022-12-09T06:39:04.508Z,100227.22
2022-12-09T06:39:54.459Z,100230.69
2022-12-09T06:40:42.540Z,100226.44
2022-12-09T06:41:29.430Z,100227.31
2022-12-09T06:42:16.709Z,100235.06
2022-12-09T06:43:03.278Z,100227.56
2022-12-09T06:43:50.204Z,100227.56
2022-12-09T06:44:37.782Z,100227.66
2022-12-09T06:45:24.772Z,100227.84
2022-12-09T06:46:13.160Z,100229.59
2022-12-09T06:47:00.655Z,100226.16
2022-12-09T06:47:48.455Z,100232.22
2022-12-09T06:48:35.385Z,100232.16
2022-12-09T06:49:22.402Z,100233.13
2022-12-09T06:50:10.573Z,100228.88
2022-12-09T06:50:57.586Z,100228.97
2022-12-09T06:51:44.649Z,100232.22
2022-12-09T06:52:31.680Z,100235.75
2022-12-09T06:53:18.854Z,100229.69
2022-12-09T06:54:07.080Z,100233.13
2022-12-09T06:54:53.886Z,100230.47
2022-12-09T06:55:41.029Z,100229.69
2022-12-09T06:56:27.841Z,100230.56
2022-12-09T06:57:14.525Z,100232.41
2022-12-09T06:58:01.148Z,100234.28
2022-12-09T06:58:51.309Z,100229.09
2022-12-09T06:59:38.159Z,100237.78
2022-12-09T07:00:25.980Z,100231.97
2022-12-09T07:01:19.240Z,100238.06
2022-12-09T07:02:07.710Z,100233.81
2022-12-09T07:02:56.561Z,100235.69
2022-12-09T07:03:46.632Z,100244.47
2022-12-09T07:04:35.600Z,100239.53
2022-12-09T07:05:26.093Z,100237.03
2022-12-09T07:06:40.455Z,100241.47
2022-12-09T07:07:27.616Z,100238.38
2022-12-09T07:08:14.763Z,100247.25
2022-12-09T07:09:08.102Z,100247.34
2022-12-09T07:09:55.152Z,100240.66
2022-12-09T07:10:48.130Z,100245.75
2022-12-09T07:11:38.626Z,100247.25
2022-12-09T07:12:25.219Z,100246.47
2022-12-09T07:13:12.116Z,100243.03
2022-12-09T07:13:59.085Z,100248.22
2022-12-09T07:14:45.661Z,100249.81
2022-12-09T07:15:32.749Z,100245.59
2022-12-09T07:16:19.502Z,100245.50
2022-12-09T07:17:08.490Z,100251.59
2022-12-09T07:17:55.703Z,100253.28
2022-12-09T07:18:42.992Z,100251.59
2022-12-09T07:19:30.532Z,100252.47
2022-12-09T07:20:18.013Z,100257.66
2022-12-09T07:21:15.733Z,100252.66
2022-12-09T07:22:02.488Z,100257.81
2022-12-09T07:22:49.629Z,100256.97
2022-12-09T07:23:37.736Z,100252.81
2022-12-09T07:24:25.985Z,100252.00
2022-12-09T07:25:13.477Z,100260.66
2022-12-09T07:26:02.378Z,100254.84
2022-12-09T07:26:50.829Z,100253.25
2022-12-09T07:27:38.114Z,100258.44
2022-12-09T07:28:25.021Z,100255.97
2022-12-09T07:29:12.226Z,100249.94
2022-12-09T07:29:59.148Z,100261.88
2022-12-09T07:30:45.729Z,100257.63
2022-12-09T07:31:33.793Z,100259.38
2022-12-09T07:32:20.912Z,100255.06
2022-12-09T07:33:10.785Z,100257.72
2022-12-09T07:33:58.854Z,100252.84
2022-12-09T07:34:46.393Z,100260.69
2022-12-09T07:35:33.823Z,100249.75
2022-12-09T07:36:23.201Z,100250.53
2022-12-09T07:37:10.138Z,100257.50
2022-12-09T07:37:57.191Z,100259.19
2022-12-09T07:38:43.959Z,100259.03
2022-12-09T07:39:31.067Z,100263.19
2022-12-09T07:40:17.950Z,100255.34
2022-12-09T07:41:09.504Z,100258.59
2022-12-09T07:41:57.812Z,100257.00
2022-12-09T07:42:48.971Z,100253.75
2022-12-09T07:43:39.818Z,100262.38
2022-12-09T07:44:28.286Z,100259.09
2022-12-09T07:45:15.674Z,100261.75
2022-12-09T07:46:07.261Z,100256.78
2022-12-09T07:46:56.574Z,100256.00
2022-12-09T07:47:44.022Z,100264.00
2022-12-09T07:48:31.242Z,100259.38
2022-12-09T07:49:18.342Z,100262.03
2022-12-09T07:50:06.985Z,100262.19
2022-12-09T07:50:54.531Z,100261.38
2022-12-09T07:51:42.621Z,100260.59
2022-12-09T07:52:29.530Z,100262.34
2022-12-09T07:53:16.062Z,100262.19
2022-12-09T07:54:03.441Z,100263.94
2022-12-09T07:54:50.486Z,100267.31
2022-12-09T07:55:37.405Z,100259.69
2022-12-09T07:56:24.979Z,100268.28
2022-12-09T07:57:11.990Z,100267.47
2022-12-09T07:57:58.544Z,100266.56
2022-12-09T07:58:48.092Z,100266.66
2022-12-09T07:59:35.458Z,100268.44
2022-12-09T08:00:22.703Z,100257.22
2022-12-09T08:01:12.844Z,100265.88
2022-12-09T08:02:05.552Z,100265.78
2022-12-09T08:02:53.842Z,100263.22
2022-12-09T08:03:42.598Z,100264.91
2022-12-09T08:04:30.876Z,100273.38
2022-12-09T08:05:18.313Z,100273.28
2022-12-09T08:06:06.160Z,100272.44
2022-12-09T08:06:53.521Z,100268.91
2022-12-09T08:07:44.132Z,100263.78
2022-12-09T08:08:32.016Z,100267.16
2022-12-09T08:09:20.936Z,100263.63
2022-12-09T08:10:08.522Z,100266.34
2022-12-09T08:11:11.061Z,100272.44
2022-12-09T08:11:58.550Z,100270.84
2022-12-09T08:12:45.567Z,100269.94
2022-12-09T08:13:32.304Z,100273.66
2022-12-09T08:14:19.313Z,100261.72
2022-12-09T08:15:06.823Z,100269.81
2022-12-09T08:15:54.124Z,100268.38
2022-12-09T08:16:42.596Z,100274.50
2022-12-09T08:17:31.831Z,100269.38
2022-12-09T08:18:18.916Z,100272.69
2022-12-09T08:19:06.204Z,100275.25
2022-12-09T08:19:53.988Z,100282.13
2022-12-09T08:20:41.099Z,100277.00
2022-12-09T08:21:30.631Z,100273.66
2022-12-09T08:22:17.276Z,100271.94
2022-12-09T08:23:04.263Z,100271.09
2022-12-09T08:23:52.134Z,100275.41
2022-12-09T08:24:39.160Z,100265.16
2022-12-09T08:25:25.854Z,100269.31
2022-12-09T08:26:19.867Z,100264.19
2022-12-09T08:27:06.803Z,100268.53
2022-12-09T08:27:54.263Z,100271.16
2022-12-09T08:28:41.206Z,100272.84
2022-12-09T08:29:28.017Z,100273.88
2022-12-09T08:30:17.047Z,100273.16
2022-12-09T08:31:10.306Z,100279.25
2022-12-09T08:31:57.635Z,100271.56
2022-12-09T08:32:45.576Z,100272.47
2022-12-09T08:33:34.423Z,100268.28
2022-12-09T08:34:21.467Z,100276.13
2022-12-09T08:35:15.273Z,100269.41
2022-12-09T08:36:09.621Z,100266.91
2022-12-09T08:37:02.266Z,100268.75
2022-12-09T08:37:49.704Z,100269.78
2022-12-09T08:38:36.494Z,100269.88
2022-12-09T08:39:23.547Z,100267.38
2022-12-09T08:40:12.537Z,100269.13
2022-12-09T08:41:09.328Z,100260.75
2022-12-09T08:41:56.421Z,100268.69
2022-12-09T08:42:43.837Z,100267.88
2022-12-09T08:43:31.418Z,100263.59
2022-12-09T08:44:20.376Z,100259.38
2022-12-09T08:45:08.563Z,100262.16
2022-12-09T08:45:55.528Z,100262.25
2022-12-09T08:46:45.675Z,100264.00
2022-12-09T08:47:34.591Z,100261.34
2022-12-09T08:48:21.425Z,100257.19
2022-12-09T08:49:10.299Z,100256.47
2022-12-09T08:49:58.576Z,100256.47
2022-12-09T08:50:46.179Z,100259.28
2022-12-09T08:51:34.225Z,100255.00
2022-12-09T08:52:21.854Z,100258.53
2022-12-09T08:53:09.981Z,100253.41
2022-12-09T08:53:58.749Z,100256.13
2022-12-09T08:54:45.637Z,100262.06
2022-12-09T08:55:35.453Z,100246.66
2022-12-09T08:56:22.407Z,100255.25
2022-12-09T08:57:09.588Z,100251.88
2022-12-09T08:57:57.981Z,100254.50
2022-12-09T08:58:48.706Z,100260.59
2022-12-09T08:59:44.883Z,100260.69
2022-12-09T09:00:32.392Z,100259.66
2022-12-09T09:01:22.774Z,100261.56
2022-12-09T09:02:10.075Z,100252.91
2022-12-09T09:02:57.411Z,100256.50
2022-12-09T09:03:49.094Z,100257.38
2022-12-09T09:04:39.128Z,100265.16
2022-12-09T09:05:27.132Z,100261.69
2022-12-09T09:06:17.240Z,100262.66
2022-12-09T09:07:04.873Z,100267.13
2022-12-09T09:07:52.817Z,100263.75
2022-12-09T09:08:43.491Z,100262.19
2022-12-09T09:09:30.703Z,100264.00
2022-12-09T09:10:19.788Z,100258.06
2022-12-09T09:11:19.670Z,100257.25
2022-12-09T09:12:08.334Z,100257.19
2022-12-09T09:12:55.665Z,100270.91
2022-12-09T09:13:45.071Z,100263.28
2022-12-09T09:14:32.807Z,100269.28
2022-12-09T09:15:19.577Z,100261.69
2022-12-09T09:16:14.230Z,100268.63
2022-12-09T09:17:01.929Z,100265.19
2022-12-09T09:17:51.855Z,100268.63
2022-12-09T09:18:41.186Z,100266.00
2022-12-09T09:19:28.627Z,100272.16
2022-12-09T09:20:16.244Z,100264.44
2022-12-09T09:21:07.681Z,100268.06
2022-12-09T09:21:55.525Z,100271.44
2022-12-09T09:22:43.037Z,100273.34
2022-12-09T09:23:30.103Z,100274.28
2022-12-09T09:24:19.371Z,100275.34
2022-12-09T09:25:07.146Z,100277.09
2022-12-09T09:25:54.894Z,100271.97
2022-12-09T09:26:42.928Z,100273.78
2022-12-09T09:27:30.447Z,100279.88
2022-12-09T09:28:17.497Z,100274.00
2022-12-09T09:29:05.446Z,100273.06